createdAt,value
2018-01-13T00:00:05.662Z,46.80
2018-01-13T00:02:33.660Z,44.17
2018-01-13T00:05:01.706Z,47.42
2018-01-13T00:07:29.753Z,47.03
2018-01-13T00:09:57.754Z,44.03
2018-01-13T00:12:25.797Z,43.87
2018-01-13T00:14:53.822Z,45.40
2018-01-13T00:17:21.829Z,43.60
2018-01-13T00:19:50.134Z,42.97
2018-01-13T00:22:18.154Z,47.10
2018-01-13T00:24:46.921Z,41.10
2018-01-13T00:27:14.972Z,48.65
2018-01-13T00:29:42.991Z,41.55
2018-01-13T00:32:11.766Z,48.15
2018-01-13T00:34:39.794Z,50.30
2018-01-13T00:37:07.890Z,43.45
2018-01-13T00:39:35.890Z,41.72
2018-01-13T00:42:04.650Z,45.08
2018-01-13T00:44:32.671Z,47.63
2018-01-13T00:47:00.678Z,49.13
2018-01-13T00:49:28.675Z,42.65
2018-01-13T00:51:56.702Z,43.95
2018-01-13T00:54:24.682Z,43.40
2018-01-13T00:56:52.712Z,45.33
2018-01-13T00:59:20.718Z,46.37
2018-01-13T01:01:48.743Z,44.75
2018-01-13T01:04:17.491Z,43.45
2018-01-13T01:06:45.506Z,43.80
2018-01-13T01:09:13.558Z,45.35
2018-01-13T01:11:42.314Z,43.40
2018-01-13T01:14:11.055Z,45.65
2018-01-13T01:16:39.070Z,46.42
2018-01-13T01:19:07.101Z,45.83
2018-01-13T01:21:35.121Z,43.70
2018-01-13T01:24:03.151Z,38.17
2018-01-13T01:26:31.174Z,45.78
2018-01-13T01:28:59.936Z,42.97
2018-01-13T01:31:27.937Z,45.22
2018-01-13T01:33:56.786Z,40.72
2018-01-13T01:36:24.821Z,45.28
2018-01-13T01:38:52.882Z,43.63
2018-01-13T01:41:21.682Z,44.88
2018-01-13T01:43:49.701Z,42.62
2018-01-13T01:46:17.711Z,44.08
2018-01-13T01:48:45.734Z,42.58
2018-01-13T01:51:13.747Z,45.63
2018-01-13T01:53:42.558Z,48.53
2018-01-13T01:56:10.577Z,43.97
2018-01-13T01:58:38.574Z,43.33
2018-01-13T02:01:07.316Z,47.50
2018-01-13T02:03:35.344Z,50.35
2018-01-13T02:06:03.362Z,43.55
2018-01-13T02:08:31.433Z,43.63
2018-01-13T02:10:59.446Z,42.40
2018-01-13T02:13:27.449Z,43.63
2018-01-13T02:15:55.472Z,45.60
2018-01-13T02:18:24.250Z,42.53
2018-01-13T02:20:53.033Z,43.30
2018-01-13T02:23:21.099Z,39.85
2018-01-13T02:25:49.124Z,45.97
2018-01-13T02:28:17.129Z,41.65
2018-01-13T02:30:45.153Z,41.50
2018-01-13T02:33:13.145Z,43.70
2018-01-13T02:35:41.223Z,42.83
2018-01-13T02:38:09.225Z,44.05
2018-01-13T02:40:37.242Z,43.42
2018-01-13T02:43:05.258Z,51.45
2018-01-13T02:45:33.236Z,46.55
2018-01-13T02:48:01.282Z,47.40
2018-01-13T02:50:29.295Z,45.40
2018-01-13T02:52:58.073Z,39.05
2018-01-13T02:55:26.847Z,47.80
2018-01-13T02:57:54.902Z,43.33
2018-01-13T03:00:22.900Z,49.70
2018-01-13T03:02:51.702Z,45.97
2018-01-13T03:05:20.475Z,45.30
2018-01-13T03:07:49.290Z,45.92
2018-01-13T03:10:17.298Z,44.53
2018-01-13T03:12:45.309Z,45.35
2018-01-13T03:15:14.105Z,45.85
2018-01-13T03:17:42.889Z,42.13
2018-01-13T03:20:11.666Z,54.35
2018-01-13T03:22:40.430Z,43.65
2018-01-13T03:25:08.436Z,45.03
2018-01-13T03:27:37.207Z,45.72
2018-01-13T03:30:05.974Z,42.60
2018-01-13T03:32:33.982Z,46.03
2018-01-13T03:35:02.766Z,37.80
2018-01-13T03:37:31.550Z,45.33
2018-01-13T03:40:00.300Z,43.63
2018-01-13T03:42:29.098Z,48.20
2018-01-13T03:44:57.063Z,44.95
2018-01-13T03:47:25.093Z,39.28
2018-01-13T03:49:53.151Z,45.80
2018-01-13T03:52:21.173Z,50.40
2018-01-13T03:54:49.184Z,44.75
2018-01-13T03:57:17.201Z,47.20
2018-01-13T03:59:45.218Z,44.50
2018-01-13T04:02:14.031Z,43.55
2018-01-13T04:04:42.022Z,49.55
2018-01-13T04:07:10.042Z,54.25
2018-01-13T04:09:38.826Z,45.22
2018-01-13T04:12:07.617Z,44.40
2018-01-13T04:14:36.363Z,49.20
2018-01-13T04:17:05.186Z,46.03
2018-01-13T04:19:34.015Z,50.30
2018-01-13T04:22:01.986Z,49.22
2018-01-13T04:24:29.980Z,49.58
2018-01-13T04:26:57.987Z,48.90
2018-01-13T04:29:26.767Z,50.03
2018-01-13T04:31:55.583Z,54.47
2018-01-13T04:34:23.597Z,46.45
2018-01-13T04:36:51.639Z,53.70
2018-01-13T04:39:19.653Z,50.40
2018-01-13T04:41:47.698Z,53.35
2018-01-13T04:44:15.724Z,56.03
2018-01-13T04:46:44.498Z,51.15
2018-01-13T04:49:13.260Z,43.78
2018-01-13T04:51:41.265Z,48.53
2018-01-13T04:54:10.062Z,46.83
2018-01-13T04:56:38.042Z,40.30
2018-01-13T04:59:06.055Z,42.10
2018-01-13T05:01:34.094Z,48.03
2018-01-13T05:04:02.082Z,51.22
2018-01-13T05:06:30.095Z,50.53
2018-01-13T05:08:58.878Z,49.63
2018-01-13T05:11:27.685Z,47.28
2018-01-13T05:13:55.663Z,41.70
2018-01-13T05:16:23.667Z,48.25
2018-01-13T05:18:51.690Z,43.70
2018-01-13T05:21:19.710Z,54.28
2018-01-13T05:23:47.709Z,46.60
2018-01-13T05:26:16.494Z,53.65
2018-01-13T05:28:44.508Z,47.55
2018-01-13T05:31:12.485Z,58.97
2018-01-13T05:33:40.503Z,46.75
2018-01-13T05:36:08.530Z,47.92
2018-01-13T05:38:36.557Z,45.17
2018-01-13T05:41:05.353Z,50.25
2018-01-13T05:43:34.106Z,47.22
2018-01-13T05:46:02.102Z,42.70
2018-01-13T05:48:30.871Z,46.70
2018-01-13T05:50:58.871Z,43.95
2018-01-13T05:53:26.871Z,47.35
2018-01-13T05:55:54.880Z,38.63
2018-01-13T05:58:22.867Z,45.58
2018-01-13T06:00:51.682Z,44.97
2018-01-13T06:03:19.709Z,46.15
2018-01-13T06:05:47.719Z,44.90
2018-01-13T06:08:15.730Z,38.47
2018-01-13T06:10:44.523Z,41.75
2018-01-13T06:13:12.538Z,46.33
2018-01-13T06:15:40.522Z,42.45
2018-01-13T06:18:08.491Z,49.45
2018-01-13T06:20:36.487Z,41.03
2018-01-13T06:23:04.509Z,49.92
2018-01-13T06:25:33.267Z,43.70
2018-01-13T06:28:01.303Z,43.53
2018-01-13T06:30:29.312Z,48.35
2018-01-13T06:32:57.311Z,41.60
2018-01-13T06:35:25.357Z,47.15
2018-01-13T06:37:54.121Z,47.95
2018-01-13T06:40:22.893Z,49.17
2018-01-13T06:42:50.924Z,52.72
2018-01-13T06:45:18.953Z,52.62
2018-01-13T06:47:46.969Z,48.90
2018-01-13T06:50:14.958Z,45.00
2018-01-13T06:52:42.993Z,48.70
2018-01-13T06:55:11.769Z,50.00
2018-01-13T06:57:39.758Z,46.83
2018-01-13T07:00:08.551Z,43.75
2018-01-13T07:02:36.528Z,45.80
2018-01-13T07:05:04.538Z,45.17
2018-01-13T07:07:32.586Z,51.55
2018-01-13T07:10:00.635Z,43.63
2018-01-13T07:12:28.686Z,49.22
2018-01-13T07:14:57.493Z,45.33
2018-01-13T07:17:25.489Z,43.58
2018-01-13T07:19:53.513Z,46.85
2018-01-13T07:22:22.261Z,50.10
2018-01-13T07:24:51.011Z,56.45
2018-01-13T07:27:19.007Z,46.47
2018-01-13T07:29:47.013Z,43.10
2018-01-13T07:32:14.983Z,46.28
2018-01-13T07:34:42.982Z,42.70
2018-01-13T07:37:11.237Z,46.55
2018-01-13T07:39:40.009Z,48.03
2018-01-13T07:42:08.023Z,50.20
2018-01-13T07:44:36.030Z,45.75
2018-01-13T07:47:04.060Z,43.25
2018-01-13T07:49:32.039Z,43.65
2018-01-13T07:52:00.033Z,46.13
2018-01-13T07:54:28.006Z,48.97
2018-01-13T07:56:56.785Z,41.88
2018-01-13T07:59:24.789Z,55.12
2018-01-13T08:01:52.796Z,51.15
2018-01-13T08:04:20.814Z,45.88
2018-01-13T08:06:48.861Z,46.17
2018-01-13T08:09:17.674Z,43.75
2018-01-13T08:11:45.662Z,43.53
2018-01-13T08:14:14.421Z,45.12
2018-01-13T08:16:42.424Z,50.30
2018-01-13T08:19:11.195Z,56.50
2018-01-13T08:21:39.189Z,175.70
2018-01-13T08:24:07.258Z,141.90
2018-01-13T08:26:36.046Z,101.35
2018-01-13T08:29:04.819Z,98.45
2018-01-13T08:31:32.830Z,81.20
2018-01-13T08:34:00.857Z,66.68
2018-01-13T08:36:28.831Z,63.28
2018-01-13T08:38:57.610Z,53.20
2018-01-13T08:41:25.614Z,50.22
2018-01-13T08:43:53.626Z,56.85
2018-01-13T08:46:21.633Z,53.60
2018-01-13T08:48:50.443Z,56.67
2018-01-13T08:51:18.469Z,47.00
2018-01-13T08:53:46.478Z,55.97
2018-01-13T08:56:14.478Z,60.15
2018-01-13T08:58:42.556Z,62.78
2018-01-13T09:01:11.383Z,62.62
2018-01-13T09:03:39.451Z,52.60
2018-01-13T09:06:07.510Z,57.45
2018-01-13T09:08:35.614Z,93.72
2018-01-13T09:11:04.413Z,70.90
2018-01-13T09:13:32.421Z,61.30
2018-01-13T09:16:00.453Z,73.28
2018-01-13T09:18:28.426Z,67.60
2018-01-13T09:20:56.379Z,67.03
2018-01-13T09:23:25.209Z,59.63
2018-01-13T09:25:53.278Z,77.20
2018-01-13T09:28:21.278Z,69.78
2018-01-13T09:30:49.306Z,63.05
2018-01-13T09:33:17.327Z,62.62
2018-01-13T09:35:45.341Z,65.60
2018-01-13T09:38:13.331Z,54.80
2018-01-13T09:40:41.343Z,69.18
2018-01-13T09:43:10.137Z,63.05
2018-01-13T09:45:38.948Z,66.47
2018-01-13T09:48:06.973Z,51.55
2018-01-13T09:50:34.998Z,55.40
2018-01-13T09:53:03.039Z,58.80
2018-01-13T09:55:31.817Z,53.67
2018-01-13T09:58:00.617Z,53.65
2018-01-13T10:00:29.401Z,52.65
2018-01-13T10:02:58.142Z,50.83
2018-01-13T10:05:26.158Z,46.75
2018-01-13T10:07:54.972Z,45.33
2018-01-13T10:10:23.007Z,48.03
2018-01-13T10:12:51.850Z,51.22
2018-01-13T10:15:19.826Z,47.45
2018-01-13T10:17:47.899Z,42.53
2018-01-13T10:20:16.004Z,40.75
2018-01-13T10:22:43.978Z,47.50
2018-01-13T10:25:12.774Z,44.72
2018-01-13T10:27:41.590Z,46.13
2018-01-13T10:30:09.566Z,43.70
2018-01-13T10:32:37.585Z,45.47
2018-01-13T10:35:05.618Z,47.70
2018-01-13T10:37:33.627Z,53.17
2018-01-13T10:40:02.418Z,49.50
2018-01-13T10:42:31.193Z,42.60
2018-01-13T10:44:59.180Z,44.85
2018-01-13T10:47:27.955Z,51.03
2018-01-13T10:49:55.985Z,46.47
2018-01-13T10:52:23.963Z,43.13
2018-01-13T10:54:51.946Z,41.28
2018-01-13T10:57:19.970Z,45.33
2018-01-13T10:59:47.946Z,41.40
2018-01-13T11:02:15.958Z,41.37
2018-01-13T11:04:43.990Z,41.47
2018-01-13T11:07:12.023Z,45.67
2018-01-13T11:09:40.799Z,47.28
2018-01-13T11:12:08.868Z,47.15
2018-01-13T11:14:36.870Z,52.45
2018-01-13T11:17:04.891Z,42.80
2018-01-13T11:19:32.932Z,38.07
2018-01-13T11:22:00.938Z,41.20
2018-01-13T11:24:28.910Z,42.17
2018-01-13T11:26:56.895Z,43.92
2018-01-13T11:29:24.911Z,37.83
2018-01-13T11:31:52.924Z,36.13
2018-01-13T11:34:20.954Z,36.63
2018-01-13T11:36:48.967Z,44.83
2018-01-13T11:39:16.995Z,41.97
2018-01-13T11:41:45.026Z,36.90
2018-01-13T11:44:13.795Z,42.55
2018-01-13T11:46:41.825Z,47.62
2018-01-13T11:49:09.837Z,38.70
2018-01-13T11:51:37.871Z,40.42
2018-01-13T11:54:05.866Z,36.53
2018-01-13T11:56:33.952Z,43.15
2018-01-13T11:59:02.727Z,43.78
2018-01-13T12:01:30.783Z,41.63
2018-01-13T12:03:58.802Z,41.75
2018-01-13T12:06:26.811Z,45.00
2018-01-13T12:08:54.820Z,42.95
2018-01-13T12:11:23.583Z,44.20
2018-01-13T12:13:51.605Z,45.17
2018-01-13T12:16:19.662Z,42.90
2018-01-13T12:18:48.438Z,40.38
2018-01-13T12:21:17.222Z,51.00
2018-01-13T12:23:45.957Z,44.65
2018-01-13T12:26:13.953Z,49.20
2018-01-13T12:28:41.948Z,45.43
2018-01-13T12:31:10.754Z,46.10
2018-01-13T12:33:38.783Z,45.45
2018-01-13T12:36:06.822Z,41.55
2018-01-13T12:38:34.839Z,42.13
2018-01-13T12:41:02.933Z,45.15
2018-01-13T12:43:31.798Z,42.80
2018-01-13T12:45:59.826Z,38.78
2018-01-13T12:48:27.827Z,38.90
2018-01-13T12:50:55.838Z,40.22
2018-01-13T12:53:23.834Z,39.88
2018-01-13T12:55:51.849Z,41.42
2018-01-13T12:58:19.874Z,38.53
2018-01-13T13:00:47.882Z,44.00
2018-01-13T13:03:15.934Z,38.07
2018-01-13T13:05:43.982Z,42.47
2018-01-13T13:08:11.974Z,52.97
2018-01-13T13:10:39.998Z,53.05
2018-01-13T13:13:08.025Z,49.13
2018-01-13T13:15:36.809Z,52.93
2018-01-13T13:18:04.878Z,60.73
2018-01-13T13:20:32.886Z,61.23
2018-01-13T13:23:01.666Z,51.40
2018-01-13T13:25:30.471Z,61.45
2018-01-13T13:27:59.326Z,59.20
2018-01-13T13:30:27.365Z,72.50
2018-01-13T13:32:55.419Z,56.47
2018-01-13T13:35:23.422Z,59.25
2018-01-13T13:37:51.436Z,50.90
2018-01-13T13:40:20.231Z,51.10
2018-01-13T13:42:48.996Z,53.10
2018-01-13T13:45:17.038Z,45.00
2018-01-13T13:47:45.059Z,49.40
2018-01-13T13:50:13.882Z,49.93
2018-01-13T13:52:41.886Z,54.07
2018-01-13T13:55:09.887Z,61.83
2018-01-13T13:57:38.657Z,53.60
2018-01-13T14:00:08.487Z,54.83
2018-01-13T14:02:36.634Z,51.40
2018-01-13T14:05:04.669Z,42.07
2018-01-13T14:07:32.691Z,52.10
2018-01-13T14:10:01.448Z,45.83
2018-01-13T14:12:29.477Z,42.03
2018-01-13T14:14:58.028Z,42.00
2018-01-13T14:17:25.578Z,34.37
2018-01-13T14:19:53.579Z,40.60
2018-01-13T14:22:21.623Z,38.67
2018-01-13T14:24:50.433Z,33.57
2018-01-13T14:27:18.415Z,35.37
2018-01-13T14:29:46.426Z,33.70
2018-01-13T14:32:14.458Z,33.83
2018-01-13T14:34:42.451Z,35.63
2018-01-13T14:37:10.453Z,38.00
2018-01-13T14:39:38.459Z,35.83
2018-01-13T14:42:06.498Z,33.40
2018-01-13T14:44:34.506Z,35.67
2018-01-13T14:47:02.582Z,36.17
2018-01-13T14:49:30.622Z,40.73
2018-01-13T14:51:59.383Z,41.00
2018-01-13T14:54:27.393Z,39.43
2018-01-13T14:56:55.376Z,37.23
2018-01-13T14:59:23.417Z,39.97
2018-01-13T15:01:52.219Z,41.53
2018-01-13T15:04:20.198Z,36.23
2018-01-13T15:06:48.251Z,47.17
2018-01-13T15:09:17.045Z,44.77
2018-01-13T15:11:45.145Z,41.13
2018-01-13T15:14:13.147Z,46.73
2018-01-13T15:16:41.158Z,38.27
2018-01-13T15:19:09.193Z,43.40
2018-01-13T15:21:37.177Z,43.23
2018-01-13T15:24:05.955Z,50.33
2018-01-13T15:26:33.946Z,46.90
2018-01-13T15:29:01.944Z,46.00
2018-01-13T15:31:29.965Z,40.80
2018-01-13T15:33:58.751Z,67.10
2018-01-13T15:36:26.794Z,74.20
2018-01-13T15:38:54.818Z,68.83
2018-01-13T15:41:22.849Z,63.50
2018-01-13T15:43:50.885Z,61.70
2018-01-13T15:46:18.906Z,56.50
2018-01-13T15:48:47.680Z,87.30
2018-01-13T15:51:15.698Z,75.93
2018-01-13T15:53:43.751Z,85.60
2018-01-13T15:56:12.557Z,117.00
2018-01-13T15:58:40.574Z,93.27
2018-01-13T16:01:08.611Z,75.40
2018-01-13T16:03:36.599Z,67.60
2018-01-13T16:06:04.646Z,176.00
2018-01-13T16:08:32.662Z,107.70
2018-01-13T16:11:00.686Z,91.53
2018-01-13T16:13:28.725Z,155.43
2018-01-13T16:15:57.522Z,172.60
2018-01-13T16:18:25.539Z,134.10
2018-01-13T16:20:53.543Z,127.93
2018-01-13T16:23:22.342Z,99.00
2018-01-13T16:25:50.358Z,87.30
2018-01-13T16:28:18.378Z,69.83
2018-01-13T16:30:47.173Z,55.28
2018-01-13T16:33:15.176Z,87.87
2018-01-13T16:35:43.187Z,103.03
2018-01-13T16:38:11.194Z,159.53
2018-01-13T16:40:39.202Z,116.83
2018-01-13T16:43:07.231Z,110.90
2018-01-13T16:45:35.242Z,72.97
2018-01-13T16:48:03.274Z,55.07
2018-01-13T16:50:31.284Z,57.83
2018-01-13T16:52:59.321Z,57.67
2018-01-13T16:55:27.330Z,55.80
2018-01-13T16:57:55.355Z,65.90
2018-01-13T17:00:23.359Z,52.73
2018-01-13T17:02:51.430Z,50.93
2018-01-13T17:05:19.473Z,47.00
2018-01-13T17:07:47.470Z,52.17
2018-01-13T17:10:15.487Z,67.73
2018-01-13T17:12:43.510Z,71.62
2018-01-13T17:15:12.308Z,62.05
2018-01-13T17:17:40.301Z,53.37
2018-01-13T17:20:09.187Z,48.00
2018-01-13T17:22:38.024Z,53.03
2018-01-13T17:25:06.041Z,54.90
2018-01-13T17:27:34.054Z,46.05
2018-01-13T17:30:02.098Z,57.05
2018-01-13T17:32:30.865Z,62.25
2018-01-13T17:34:58.897Z,135.53
2018-01-13T17:37:26.929Z,87.20
2018-01-13T17:39:55.759Z,82.40
2018-01-13T17:42:24.574Z,70.95
2018-01-13T17:44:52.601Z,71.28
2018-01-13T17:47:20.630Z,63.07
2018-01-13T17:49:48.670Z,56.50
2018-01-13T17:52:16.687Z,59.83
2018-01-13T17:54:45.501Z,58.37
2018-01-13T17:57:13.471Z,51.50
2018-01-13T17:59:41.498Z,54.20
2018-01-13T18:02:09.533Z,60.90
2018-01-13T18:04:37.526Z,56.42
2018-01-13T18:07:05.547Z,62.30
2018-01-13T18:09:33.609Z,71.10
2018-01-13T18:12:01.690Z,63.90
2018-01-13T18:14:29.689Z,66.53
2018-01-13T18:16:58.475Z,65.60
2018-01-13T18:19:26.506Z,53.45
2018-01-13T18:21:54.635Z,51.60
2018-01-13T18:24:22.665Z,50.25
2018-01-13T18:26:50.690Z,49.03
2018-01-13T18:29:18.729Z,54.53
2018-01-13T18:31:46.723Z,53.50
2018-01-13T18:34:14.779Z,58.50
2018-01-13T18:36:42.798Z,59.43
2018-01-13T18:39:10.818Z,58.42
2018-01-13T18:41:38.845Z,58.87
2018-01-13T18:44:06.843Z,60.83
2018-01-13T18:46:34.862Z,61.22
2018-01-13T18:49:03.639Z,57.42
2018-01-13T18:51:32.424Z,57.22
2018-01-13T18:54:01.219Z,67.20
2018-01-13T18:56:29.987Z,68.03
2018-01-13T18:58:57.990Z,65.00
2018-01-13T19:01:26.002Z,62.55
2018-01-13T19:03:53.986Z,61.37
2018-01-13T19:06:21.999Z,63.35
2018-01-13T19:08:50.007Z,58.53
2018-01-13T19:11:18.002Z,68.45
2018-01-13T19:13:46.050Z,66.10
2018-01-13T19:16:14.075Z,57.45
2018-01-13T19:18:42.861Z,59.38
2018-01-13T19:21:11.633Z,59.13
2018-01-13T19:23:39.666Z,57.83
2018-01-13T19:26:07.656Z,56.30
2018-01-13T19:28:35.674Z,55.12
2018-01-13T19:31:03.697Z,55.38
2018-01-13T19:33:31.761Z,51.35
2018-01-13T19:35:59.748Z,49.60
2018-01-13T19:38:27.753Z,55.12
2018-01-13T19:40:55.754Z,45.30
2018-01-13T19:43:23.741Z,50.25
2018-01-13T19:45:51.770Z,49.30
2018-01-13T19:48:19.865Z,52.83
2018-01-13T19:50:47.885Z,49.13
2018-01-13T19:53:16.664Z,48.92
2018-01-13T19:55:45.446Z,48.50
2018-01-13T19:58:13.465Z,48.35
2018-01-13T20:00:41.484Z,50.35
2018-01-13T20:03:09.495Z,45.20
2018-01-13T20:05:37.528Z,53.08
2018-01-13T20:08:06.312Z,50.63
2018-01-13T20:10:34.314Z,48.03
2018-01-13T20:13:02.297Z,51.92
2018-01-13T20:15:30.302Z,45.10
2018-01-13T20:17:58.311Z,48.42
2018-01-13T20:20:27.055Z,47.35
2018-01-13T20:22:55.074Z,46.03
2018-01-13T20:25:23.078Z,48.40
2018-01-13T20:27:51.087Z,49.80
2018-01-13T20:30:19.130Z,47.38
2018-01-13T20:32:47.162Z,50.78
2018-01-13T20:35:15.185Z,44.95
2018-01-13T20:37:43.205Z,44.35
2018-01-13T20:40:11.209Z,45.05
2018-01-13T20:42:39.268Z,45.85
2018-01-13T20:45:07.306Z,46.45
2018-01-13T20:47:35.327Z,43.30
2018-01-13T20:50:03.347Z,47.65
2018-01-13T20:52:31.416Z,51.15
2018-01-13T20:54:59.412Z,51.47
2018-01-13T20:57:27.394Z,46.47
2018-01-13T20:59:55.398Z,48.85
2018-01-13T21:02:23.414Z,42.45
2018-01-13T21:04:51.417Z,47.13
2018-01-13T21:07:19.454Z,51.47
2018-01-13T21:09:47.465Z,44.53
2018-01-13T21:12:15.496Z,42.75
2018-01-13T21:14:43.519Z,50.83
2018-01-13T21:17:11.535Z,50.42
2018-01-13T21:19:39.574Z,43.17
2018-01-13T21:22:08.326Z,44.50
2018-01-13T21:24:36.370Z,41.50
2018-01-13T21:27:04.381Z,46.88
2018-01-13T21:29:32.395Z,41.10
2018-01-13T21:32:00.431Z,49.53
2018-01-13T21:34:29.216Z,39.28
2018-01-13T21:36:57.989Z,40.00
2018-01-13T21:39:25.989Z,34.08
2018-01-13T21:41:54.751Z,43.50
2018-01-13T21:44:22.766Z,38.00
2018-01-13T21:46:50.729Z,36.55
2018-01-13T21:49:18.727Z,35.45
2018-01-13T21:51:46.762Z,52.25
2018-01-13T21:54:14.747Z,35.15
2018-01-13T21:56:42.735Z,34.15
2018-01-13T21:59:10.740Z,35.67
2018-01-13T22:01:38.809Z,33.50
2018-01-13T22:04:06.828Z,39.05
2018-01-13T22:06:34.885Z,35.70
2018-01-13T22:09:04.870Z,37.88
2018-01-13T22:11:32.874Z,39.65
2018-01-13T22:14:00.898Z,38.47
2018-01-13T22:16:28.934Z,35.08
2018-01-13T22:18:56.949Z,48.30
2018-01-13T22:21:24.927Z,38.95
2018-01-13T22:23:53.722Z,39.92
2018-01-13T22:26:22.501Z,39.13
2018-01-13T22:28:51.250Z,34.08
2018-01-13T22:31:19.248Z,34.63
2018-01-13T22:33:47.254Z,34.38
2018-01-13T22:36:15.301Z,34.90
2018-01-13T22:38:44.076Z,33.33
2018-01-13T22:41:12.101Z,34.03
2018-01-13T22:43:40.138Z,40.30
2018-01-13T22:46:08.941Z,32.20
2018-01-13T22:48:36.926Z,34.60
2018-01-13T22:51:04.954Z,38.08
2018-01-13T22:53:33.758Z,36.85
2018-01-13T22:56:01.796Z,37.28
2018-01-13T22:58:29.827Z,32.97
2018-01-13T23:00:57.818Z,37.00
2018-01-13T23:03:25.849Z,39.10
2018-01-13T23:05:53.870Z,33.45
2018-01-13T23:08:21.894Z,39.58
2018-01-13T23:10:49.901Z,34.60
2018-01-13T23:13:17.928Z,38.50
2018-01-13T23:15:45.998Z,36.53
2018-01-13T23:18:13.992Z,36.60
2018-01-13T23:20:42.013Z,33.60
2018-01-13T23:23:10.777Z,35.35
2018-01-13T23:25:38.785Z,30.77
2018-01-13T23:28:07.567Z,38.20
2018-01-13T23:30:36.361Z,30.67
2018-01-13T23:33:04.355Z,32.67
2018-01-13T23:35:32.377Z,39.13
2018-01-13T23:38:00.388Z,34.03
2018-01-13T23:40:28.471Z,42.75
2018-01-13T23:42:56.482Z,35.22
2018-01-13T23:45:24.475Z,33.25
2018-01-13T23:47:53.273Z,33.88
2018-01-13T23:50:21.314Z,29.65
2018-01-13T23:52:49.334Z,32.97
2018-01-13T23:55:17.327Z,39.05
2018-01-13T23:57:45.322Z,49.55
